sensor_id;sensor_type;location;lat;lon;timestamp;temperature;humidity
3850;DHT22;1940;51.052;13.678;2023-06-19T00:02:14;18.90;77.30
3850;DHT22;1940;51.052;13.678;2023-06-19T00:04:40;18.90;78.30
3850;DHT22;1940;51.052;13.678;2023-06-19T00:07:05;18.90;78.70
3850;DHT22;1940;51.052;13.678;2023-06-19T00:09:32;18.80;78.80
3850;DHT22;1940;51.052;13.678;2023-06-19T00:11:58;18.90;78.20
3850;DHT22;1940;51.052;13.678;2023-06-19T00:14:25;18.80;79.30
3850;DHT22;1940;51.052;13.678;2023-06-19T00:16:50;18.70;78.00
3850;DHT22;1940;51.052;13.678;2023-06-19T00:19:16;18.70;77.30
3850;DHT22;1940;51.052;13.678;2023-06-19T00:21:42;18.70;77.80
3850;DHT22;1940;51.052;13.678;2023-06-19T00:24:08;18.60;77.90
3850;DHT22;1940;51.052;13.678;2023-06-19T00:26:34;18.60;78.40
3850;DHT22;1940;51.052;13.678;2023-06-19T00:29:00;18.60;78.40
3850;DHT22;1940;51.052;13.678;2023-06-19T00:31:25;18.60;78.40
3850;DHT22;1940;51.052;13.678;2023-06-19T00:33:52;18.50;78.20
3850;DHT22;1940;51.052;13.678;2023-06-19T00:36:18;18.50;79.00
3850;DHT22;1940;51.052;13.678;2023-06-19T00:38:46;18.50;78.60
3850;DHT22;1940;51.052;13.678;2023-06-19T00:41:11;18.50;78.90
3850;DHT22;1940;51.052;13.678;2023-06-19T00:43:37;18.50;78.90
3850;DHT22;1940;51.052;13.678;2023-06-19T00:46:03;18.40;79.60
3850;DHT22;1940;51.052;13.678;2023-06-19T00:48:30;18.30;79.70
3850;DHT22;1940;51.052;13.678;2023-06-19T00:50:56;18.40;79.80
3850;DHT22;1940;51.052;13.678;2023-06-19T00:53:22;18.40;79.20
3850;DHT22;1940;51.052;13.678;2023-06-19T00:55:53;18.30;79.20
3850;DHT22;1940;51.052;13.678;2023-06-19T00:58:20;18.30;79.60
3850;DHT22;1940;51.052;13.678;2023-06-19T01:00:46;18.30;80.20
3850;DHT22;1940;51.052;13.678;2023-06-19T01:03:11;18.30;80.30
3850;DHT22;1940;51.052;13.678;2023-06-19T01:05:37;18.20;80.70
3850;DHT22;1940;51.052;13.678;2023-06-19T01:10:57;18.10;81.30
3850;DHT22;1940;51.052;13.678;2023-06-19T01:13:34;18.10;81.10
3850;DHT22;1940;51.052;13.678;2023-06-19T01:16:03;18.10;81.10
3850;DHT22;1940;51.052;13.678;2023-06-19T01:18:30;18.00;81.40
3850;DHT22;1940;51.052;13.678;2023-06-19T01:20:57;17.90;81.70
3850;DHT22;1940;51.052;13.678;2023-06-19T01:23:33;17.90;82.00
3850;DHT22;1940;51.052;13.678;2023-06-19T01:25:59;17.80;82.30
3850;DHT22;1940;51.052;13.678;2023-06-19T01:28:24;17.80;81.80
3850;DHT22;1940;51.052;13.678;2023-06-19T01:30:52;17.80;81.30
3850;DHT22;1940;51.052;13.678;2023-06-19T01:33:23;17.70;80.90
3850;DHT22;1940;51.052;13.678;2023-06-19T01:35:51;17.70;80.80
3850;DHT22;1940;51.052;13.678;2023-06-19T01:38:19;17.70;81.20
3850;DHT22;1940;51.052;13.678;2023-06-19T01:40:46;17.50;82.00
3850;DHT22;1940;51.052;13.678;2023-06-19T01:43:14;17.40;82.50
3850;DHT22;1940;51.052;13.678;2023-06-19T01:45:40;17.40;82.40
3850;DHT22;1940;51.052;13.678;2023-06-19T01:48:05;17.50;82.40
3850;DHT22;1940;51.052;13.678;2023-06-19T01:50:31;17.50;82.20
3850;DHT22;1940;51.052;13.678;2023-06-19T01:52:56;17.50;82.00
3850;DHT22;1940;51.052;13.678;2023-06-19T01:55:22;17.50;82.30
3850;DHT22;1940;51.052;13.678;2023-06-19T01:57:48;17.50;81.90
3850;DHT22;1940;51.052;13.678;2023-06-19T02:00:13;17.50;81.80
3850;DHT22;1940;51.052;13.678;2023-06-19T02:02:39;17.50;81.40
3850;DHT22;1940;51.052;13.678;2023-06-19T02:05:05;17.50;81.30
3850;DHT22;1940;51.052;13.678;2023-06-19T02:07:31;17.40;81.90
3850;DHT22;1940;51.052;13.678;2023-06-19T02:09:57;17.40;82.40
3850;DHT22;1940;51.052;13.678;2023-06-19T02:12:22;17.30;81.80
3850;DHT22;1940;51.052;13.678;2023-06-19T02:14:48;17.30;81.90
3850;DHT22;1940;51.052;13.678;2023-06-19T02:17:14;17.30;82.00
3850;DHT22;1940;51.052;13.678;2023-06-19T02:19:39;17.20;82.30
3850;DHT22;1940;51.052;13.678;2023-06-19T02:22:05;17.20;82.10
3850;DHT22;1940;51.052;13.678;2023-06-19T02:24:32;17.20;82.30
3850;DHT22;1940;51.052;13.678;2023-06-19T02:26:57;17.20;83.00
3850;DHT22;1940;51.052;13.678;2023-06-19T02:29:23;17.10;83.10
3850;DHT22;1940;51.052;13.678;2023-06-19T02:31:49;17.10;82.60
3850;DHT22;1940;51.052;13.678;2023-06-19T02:34:15;17.10;82.70
3850;DHT22;1940;51.052;13.678;2023-06-19T02:36:41;17.10;82.30
3850;DHT22;1940;51.052;13.678;2023-06-19T02:39:06;17.20;82.60
3850;DHT22;1940;51.052;13.678;2023-06-19T02:41:32;17.20;82.70
3850;DHT22;1940;51.052;13.678;2023-06-19T02:43:57;17.20;82.70
3850;DHT22;1940;51.052;13.678;2023-06-19T02:46:23;17.20;82.40
3850;DHT22;1940;51.052;13.678;2023-06-19T02:48:49;17.20;82.60
3850;DHT22;1940;51.052;13.678;2023-06-19T02:51:14;17.20;82.60
3850;DHT22;1940;51.052;13.678;2023-06-19T02:53:40;17.30;82.90
3850;DHT22;1940;51.052;13.678;2023-06-19T02:56:07;17.40;82.10
3850;DHT22;1940;51.052;13.678;2023-06-19T02:58:33;17.40;82.40
3850;DHT22;1940;51.052;13.678;2023-06-19T03:00:59;17.40;82.70
3850;DHT22;1940;51.052;13.678;2023-06-19T03:03:25;17.40;82.70
3850;DHT22;1940;51.052;13.678;2023-06-19T03:05:50;17.50;82.70
3850;DHT22;1940;51.052;13.678;2023-06-19T03:08:16;17.50;82.60
3850;DHT22;1940;51.052;13.678;2023-06-19T03:10:41;17.60;82.40
3850;DHT22;1940;51.052;13.678;2023-06-19T03:13:07;17.60;81.80
3850;DHT22;1940;51.052;13.678;2023-06-19T03:15:32;17.60;81.20
3850;DHT22;1940;51.052;13.678;2023-06-19T03:17:58;17.70;81.30
3850;DHT22;1940;51.052;13.678;2023-06-19T03:20:23;17.80;80.80
3850;DHT22;1940;51.052;13.678;2023-06-19T03:22:49;17.80;80.30
3850;DHT22;1940;51.052;13.678;2023-06-19T03:25:15;17.80;80.20
3850;DHT22;1940;51.052;13.678;2023-06-19T03:27:40;17.90;80.20
3850;DHT22;1940;51.052;13.678;2023-06-19T03:30:06;18.00;80.30
3850;DHT22;1940;51.052;13.678;2023-06-19T03:32:33;18.20;80.10
3850;DHT22;1940;51.052;13.678;2023-06-19T03:34:59;18.60;79.00
3850;DHT22;1940;51.052;13.678;2023-06-19T03:37:25;19.00;77.60
3850;DHT22;1940;51.052;13.678;2023-06-19T03:39:50;19.30;76.00
3850;DHT22;1940;51.052;13.678;2023-06-19T03:42:15;19.40;75.60
3850;DHT22;1940;51.052;13.678;2023-06-19T03:44:41;19.20;75.60
3850;DHT22;1940;51.052;13.678;2023-06-19T03:47:07;18.90;76.40
3850;DHT22;1940;51.052;13.678;2023-06-19T03:49:32;18.80;76.50
3850;DHT22;1940;51.052;13.678;2023-06-19T03:51:58;18.70;76.70
3850;DHT22;1940;51.052;13.678;2023-06-19T03:54:23;18.60;77.00
3850;DHT22;1940;51.052;13.678;2023-06-19T03:56:48;18.50;77.30
3850;DHT22;1940;51.052;13.678;2023-06-19T03:59:14;18.40;77.80
3850;DHT22;1940;51.052;13.678;2023-06-19T04:01:39;18.20;78.00
3850;DHT22;1940;51.052;13.678;2023-06-19T04:04:06;18.20;78.40
3850;DHT22;1940;51.052;13.678;2023-06-19T04:06:31;18.10;78.60
3850;DHT22;1940;51.052;13.678;2023-06-19T04:08:57;18.20;78.50
3850;DHT22;1940;51.052;13.678;2023-06-19T04:11:22;18.20;78.50
3850;DHT22;1940;51.052;13.678;2023-06-19T04:13:48;18.40;78.30
3850;DHT22;1940;51.052;13.678;2023-06-19T04:16:13;18.50;78.00
3850;DHT22;1940;51.052;13.678;2023-06-19T04:18:39;18.70;77.30
3850;DHT22;1940;51.052;13.678;2023-06-19T04:21:04;18.70;77.20
3850;DHT22;1940;51.052;13.678;2023-06-19T04:23:30;18.80;77.40
3850;DHT22;1940;51.052;13.678;2023-06-19T04:25:55;19.20;76.20
3850;DHT22;1940;51.052;13.678;2023-06-19T04:28:21;19.90;75.00
3850;DHT22;1940;51.052;13.678;2023-06-19T04:30:46;20.70;72.70
3850;DHT22;1940;51.052;13.678;2023-06-19T04:33:12;21.30;71.30
3850;DHT22;1940;51.052;13.678;2023-06-19T04:35:37;21.50;69.90
3850;DHT22;1940;51.052;13.678;2023-06-19T04:38:06;21.30;70.00
3850;DHT22;1940;51.052;13.678;2023-06-19T04:40:31;21.00;70.80
3850;DHT22;1940;51.052;13.678;2023-06-19T04:42:57;20.50;71.80
3850;DHT22;1940;51.052;13.678;2023-06-19T04:45:23;20.20;72.90
3850;DHT22;1940;51.052;13.678;2023-06-19T04:47:48;20.10;73.30
3850;DHT22;1940;51.052;13.678;2023-06-19T04:50:14;19.90;74.00
3850;DHT22;1940;51.052;13.678;2023-06-19T04:52:41;19.80;74.40
3850;DHT22;1940;51.052;13.678;2023-06-19T04:55:08;19.80;74.40
3850;DHT22;1940;51.052;13.678;2023-06-19T04:57:36;19.80;74.70
3850;DHT22;1940;51.052;13.678;2023-06-19T05:00:04;19.80;74.90
3850;DHT22;1940;51.052;13.678;2023-06-19T05:02:31;19.70;74.70
3850;DHT22;1940;51.052;13.678;2023-06-19T05:04:57;19.70;75.00
3850;DHT22;1940;51.052;13.678;2023-06-19T05:07:22;19.60;74.90
3850;DHT22;1940;51.052;13.678;2023-06-19T05:09:48;19.50;75.20
3850;DHT22;1940;51.052;13.678;2023-06-19T05:12:14;19.50;75.60
3850;DHT22;1940;51.052;13.678;2023-06-19T05:14:39;19.60;75.90
3850;DHT22;1940;51.052;13.678;2023-06-19T05:17:05;19.60;75.40
3850;DHT22;1940;51.052;13.678;2023-06-19T05:19:31;19.70;75.30
3850;DHT22;1940;51.052;13.678;2023-06-19T05:21:57;19.70;75.40
3850;DHT22;1940;51.052;13.678;2023-06-19T05:24:22;19.80;75.00
3850;DHT22;1940;51.052;13.678;2023-06-19T05:26:48;19.70;75.30
3850;DHT22;1940;51.052;13.678;2023-06-19T05:29:13;19.80;75.10
3850;DHT22;1940;51.052;13.678;2023-06-19T05:31:38;19.80;75.20
3850;DHT22;1940;51.052;13.678;2023-06-19T05:34:04;19.90;75.40
3850;DHT22;1940;51.052;13.678;2023-06-19T05:36:29;19.90;74.70
3850;DHT22;1940;51.052;13.678;2023-06-19T05:38:55;20.00;74.70
3850;DHT22;1940;51.052;13.678;2023-06-19T05:41:21;20.00;74.70
3850;DHT22;1940;51.052;13.678;2023-06-19T05:43:46;20.10;74.60
3850;DHT22;1940;51.052;13.678;2023-06-19T05:46:12;20.10;74.30
3850;DHT22;1940;51.052;13.678;2023-06-19T05:48:37;20.00;74.60
3850;DHT22;1940;51.052;13.678;2023-06-19T05:51:03;19.90;74.60
3850;DHT22;1940;51.052;13.678;2023-06-19T05:53:28;19.90;75.10
3850;DHT22;1940;51.052;13.678;2023-06-19T05:55:56;19.90;74.90
3850;DHT22;1940;51.052;13.678;2023-06-19T05:58:21;19.90;75.00
3850;DHT22;1940;51.052;13.678;2023-06-19T06:00:49;20.00;75.40
3850;DHT22;1940;51.052;13.678;2023-06-19T06:03:14;20.00;75.10
3850;DHT22;1940;51.052;13.678;2023-06-19T06:05:41;20.10;75.20
3850;DHT22;1940;51.052;13.678;2023-06-19T06:08:07;20.10;75.00
3850;DHT22;1940;51.052;13.678;2023-06-19T06:10:32;20.10;75.10
3850;DHT22;1940;51.052;13.678;2023-06-19T06:12:58;20.20;74.90
3850;DHT22;1940;51.052;13.678;2023-06-19T06:15:23;20.20;74.80
3850;DHT22;1940;51.052;13.678;2023-06-19T06:17:49;20.20;74.80
3850;DHT22;1940;51.052;13.678;2023-06-19T06:20:14;20.30;74.80
3850;DHT22;1940;51.052;13.678;2023-06-19T06:22:41;20.30;74.70
3850;DHT22;1940;51.052;13.678;2023-06-19T06:25:07;20.40;74.50
3850;DHT22;1940;51.052;13.678;2023-06-19T06:27:33;20.60;74.00
3850;DHT22;1940;51.052;13.678;2023-06-19T06:29:59;20.60;74.00
3850;DHT22;1940;51.052;13.678;2023-06-19T06:32:24;20.70;73.70
3850;DHT22;1940;51.052;13.678;2023-06-19T06:34:51;20.80;73.70
3850;DHT22;1940;51.052;13.678;2023-06-19T06:37:17;20.90;73.50
3850;DHT22;1940;51.052;13.678;2023-06-19T06:39:48;21.00;72.90
3850;DHT22;1940;51.052;13.678;2023-06-19T06:42:14;21.00;73.00
3850;DHT22;1940;51.052;13.678;2023-06-19T06:44:40;21.00;72.90
3850;DHT22;1940;51.052;13.678;2023-06-19T06:47:06;21.00;72.90
3850;DHT22;1940;51.052;13.678;2023-06-19T06:49:31;20.90;73.20
3850;DHT22;1940;51.052;13.678;2023-06-19T06:51:57;20.90;73.40
3850;DHT22;1940;51.052;13.678;2023-06-19T06:54:22;20.90;73.60
3850;DHT22;1940;51.052;13.678;2023-06-19T06:56:48;21.00;73.60
3850;DHT22;1940;51.052;13.678;2023-06-19T06:59:13;21.00;73.00
3850;DHT22;1940;51.052;13.678;2023-06-19T07:01:41;20.90;73.90
3850;DHT22;1940;51.052;13.678;2023-06-19T07:04:07;21.00;73.70
3850;DHT22;1940;51.052;13.678;2023-06-19T07:06:32;21.20;73.40
3850;DHT22;1940;51.052;13.678;2023-06-19T07:08:58;21.20;73.10
3850;DHT22;1940;51.052;13.678;2023-06-19T07:11:23;21.30;73.00
3850;DHT22;1940;51.052;13.678;2023-06-19T07:13:50;21.40;72.60
3850;DHT22;1940;51.052;13.678;2023-06-19T07:16:15;21.40;72.80
3850;DHT22;1940;51.052;13.678;2023-06-19T07:18:41;21.50;72.80
3850;DHT22;1940;51.052;13.678;2023-06-19T07:21:11;21.70;71.90
3850;DHT22;1940;51.052;13.678;2023-06-19T07:23:42;21.70;72.30
3850;DHT22;1940;51.052;13.678;2023-06-19T07:26:09;21.90;71.90
3850;DHT22;1940;51.052;13.678;2023-06-19T07:28:35;22.00;71.80
3850;DHT22;1940;51.052;13.678;2023-06-19T07:31:02;22.10;71.50
3850;DHT22;1940;51.052;13.678;2023-06-19T07:33:28;22.20;71.70
3850;DHT22;1940;51.052;13.678;2023-06-19T07:35:54;22.30;71.10
3850;DHT22;1940;51.052;13.678;2023-06-19T07:38:20;22.40;70.90
3850;DHT22;1940;51.052;13.678;2023-06-19T07:40:45;22.60;71.00
3850;DHT22;1940;51.052;13.678;2023-06-19T07:43:11;22.80;70.30
3850;DHT22;1940;51.052;13.678;2023-06-19T07:45:36;22.90;69.80
3850;DHT22;1940;51.052;13.678;2023-06-19T07:48:02;22.90;69.70
3850;DHT22;1940;51.052;13.678;2023-06-19T07:50:27;22.90;69.90
3850;DHT22;1940;51.052;13.678;2023-06-19T07:52:53;23.10;70.00
3850;DHT22;1940;51.052;13.678;2023-06-19T07:55:18;23.30;69.80
3850;DHT22;1940;51.052;13.678;2023-06-19T07:57:44;23.50;68.60
3850;DHT22;1940;51.052;13.678;2023-06-19T08:00:10;23.30;69.00
3850;DHT22;1940;51.052;13.678;2023-06-19T08:02:40;23.10;69.20
3850;DHT22;1940;51.052;13.678;2023-06-19T08:05:07;23.20;69.00
3850;DHT22;1940;51.052;13.678;2023-06-19T08:07:33;23.30;69.40
3850;DHT22;1940;51.052;13.678;2023-06-19T08:09:59;23.50;69.00
3850;DHT22;1940;51.052;13.678;2023-06-19T08:12:24;23.50;68.60
3850;DHT22;1940;51.052;13.678;2023-06-19T08:14:50;23.60;68.30
3850;DHT22;1940;51.052;13.678;2023-06-19T08:17:15;23.60;67.90
3850;DHT22;1940;51.052;13.678;2023-06-19T08:19:41;23.50;68.40
3850;DHT22;1940;51.052;13.678;2023-06-19T08:22:08;23.50;68.40
3850;DHT22;1940;51.052;13.678;2023-06-19T08:24:34;23.60;68.20
3850;DHT22;1940;51.052;13.678;2023-06-19T08:27:01;23.50;68.60
3850;DHT22;1940;51.052;13.678;2023-06-19T08:29:27;23.50;68.90
3850;DHT22;1940;51.052;13.678;2023-06-19T08:31:52;23.40;69.40
3850;DHT22;1940;51.052;13.678;2023-06-19T08:34:18;23.50;69.50
3850;DHT22;1940;51.052;13.678;2023-06-19T08:36:43;23.60;69.20
3850;DHT22;1940;51.052;13.678;2023-06-19T08:39:09;23.60;69.00
3850;DHT22;1940;51.052;13.678;2023-06-19T08:41:36;23.60;69.80
3850;DHT22;1940;51.052;13.678;2023-06-19T08:44:03;23.50;70.20
3850;DHT22;1940;51.052;13.678;2023-06-19T08:46:28;23.40;70.90
3850;DHT22;1940;51.052;13.678;2023-06-19T08:48:55;23.40;71.00
3850;DHT22;1940;51.052;13.678;2023-06-19T08:51:20;23.50;70.70
3850;DHT22;1940;51.052;13.678;2023-06-19T08:53:48;23.50;71.00
3850;DHT22;1940;51.052;13.678;2023-06-19T08:56:16;23.40;71.20
3850;DHT22;1940;51.052;13.678;2023-06-19T08:58:42;23.50;71.00
3850;DHT22;1940;51.052;13.678;2023-06-19T09:01:07;23.70;70.40
3850;DHT22;1940;51.052;13.678;2023-06-19T09:03:33;23.80;70.00
3850;DHT22;1940;51.052;13.678;2023-06-19T09:06:03;24.00;69.90
3850;DHT22;1940;51.052;13.678;2023-06-19T09:08:29;24.20;69.20
3850;DHT22;1940;51.052;13.678;2023-06-19T09:11:02;24.30;69.40
3850;DHT22;1940;51.052;13.678;2023-06-19T09:13:29;24.30;69.50
3850;DHT22;1940;51.052;13.678;2023-06-19T09:16:05;24.20;68.80
3850;DHT22;1940;51.052;13.678;2023-06-19T09:18:45;24.20;69.20
3850;DHT22;1940;51.052;13.678;2023-06-19T09:21:21;24.30;69.10
3850;DHT22;1940;51.052;13.678;2023-06-19T09:23:50;24.30;68.70
3850;DHT22;1940;51.052;13.678;2023-06-19T09:26:17;24.20;69.70
3850;DHT22;1940;51.052;13.678;2023-06-19T09:28:45;24.10;70.30
3850;DHT22;1940;51.052;13.678;2023-06-19T09:31:10;24.00;70.80
3850;DHT22;1940;51.052;13.678;2023-06-19T09:33:37;24.00;71.30
3850;DHT22;1940;51.052;13.678;2023-06-19T09:36:04;24.00;71.30
3850;DHT22;1940;51.052;13.678;2023-06-19T09:38:33;24.00;71.20
3850;DHT22;1940;51.052;13.678;2023-06-19T09:41:01;24.00;71.50
3850;DHT22;1940;51.052;13.678;2023-06-19T09:43:36;24.00;72.20
3850;DHT22;1940;51.052;13.678;2023-06-19T09:46:03;24.10;72.20
3850;DHT22;1940;51.052;13.678;2023-06-19T09:48:31;24.10;71.80
3850;DHT22;1940;51.052;13.678;2023-06-19T09:51:18;24.10;71.60
3850;DHT22;1940;51.052;13.678;2023-06-19T09:53:45;24.20;71.80
3850;DHT22;1940;51.052;13.678;2023-06-19T09:56:12;24.20;72.20
3850;DHT22;1940;51.052;13.678;2023-06-19T09:58:39;24.20;72.20
3850;DHT22;1940;51.052;13.678;2023-06-19T10:01:06;24.20;72.70
3850;DHT22;1940;51.052;13.678;2023-06-19T10:03:34;24.10;72.60
3850;DHT22;1940;51.052;13.678;2023-06-19T10:06:04;24.20;72.40
3850;DHT22;1940;51.052;13.678;2023-06-19T10:08:40;24.20;70.70
3850;DHT22;1940;51.052;13.678;2023-06-19T10:11:06;24.20;70.90
3850;DHT22;1940;51.052;13.678;2023-06-19T10:13:34;24.00;70.90
3850;DHT22;1940;51.052;13.678;2023-06-19T10:16:00;24.00;71.50
3850;DHT22;1940;51.052;13.678;2023-06-19T10:18:26;24.10;70.50
3850;DHT22;1940;51.052;13.678;2023-06-19T10:20:54;24.10;70.60
3850;DHT22;1940;51.052;13.678;2023-06-19T10:23:22;24.10;70.50
3850;DHT22;1940;51.052;13.678;2023-06-19T10:25:55;24.30;70.60
3850;DHT22;1940;51.052;13.678;2023-06-19T10:28:27;24.40;70.60
3850;DHT22;1940;51.052;13.678;2023-06-19T10:31:13;24.40;70.70
3850;DHT22;1940;51.052;13.678;2023-06-19T10:33:39;24.40;69.60
3850;DHT22;1940;51.052;13.678;2023-06-19T10:36:18;24.40;69.30
3850;DHT22;1940;51.052;13.678;2023-06-19T10:38:45;24.60;68.90
3850;DHT22;1940;51.052;13.678;2023-06-19T10:41:16;24.70;68.60
3850;DHT22;1940;51.052;13.678;2023-06-19T10:43:41;25.10;68.10
3850;DHT22;1940;51.052;13.678;2023-06-19T10:46:07;25.40;67.80
3850;DHT22;1940;51.052;13.678;2023-06-19T10:48:32;25.60;66.80
3850;DHT22;1940;51.052;13.678;2023-06-19T10:50:58;25.50;66.60
3850;DHT22;1940;51.052;13.678;2023-06-19T10:53:25;25.60;66.70
3850;DHT22;1940;51.052;13.678;2023-06-19T10:55:56;25.80;66.10
3850;DHT22;1940;51.052;13.678;2023-06-19T10:58:22;26.20;64.70
3850;DHT22;1940;51.052;13.678;2023-06-19T11:00:48;27.10;63.40
3850;DHT22;1940;51.052;13.678;2023-06-19T11:03:13;28.30;59.60
3850;DHT22;1940;51.052;13.678;2023-06-19T11:05:43;29.00;59.20
3850;DHT22;1940;51.052;13.678;2023-06-19T11:08:09;30.00;56.90
3850;DHT22;1940;51.052;13.678;2023-06-19T11:10:34;30.50;56.30
3850;DHT22;1940;51.052;13.678;2023-06-19T11:13:00;30.80;55.50
3850;DHT22;1940;51.052;13.678;2023-06-19T11:15:33;30.90;55.20
3850;DHT22;1940;51.052;13.678;2023-06-19T11:18:01;30.80;55.10
3850;DHT22;1940;51.052;13.678;2023-06-19T11:20:27;30.80;55.80
3850;DHT22;1940;51.052;13.678;2023-06-19T11:22:58;30.50;55.90
3850;DHT22;1940;51.052;13.678;2023-06-19T11:25:34;30.00;55.60
3850;DHT22;1940;51.052;13.678;2023-06-19T11:28:00;29.70;55.50
3850;DHT22;1940;51.052;13.678;2023-06-19T11:30:33;29.30;56.10
3850;DHT22;1940;51.052;13.678;2023-06-19T11:32:58;29.00;57.10
3850;DHT22;1940;51.052;13.678;2023-06-19T11:35:24;28.80;58.00
3850;DHT22;1940;51.052;13.678;2023-06-19T11:37:51;28.80;57.50
3850;DHT22;1940;51.052;13.678;2023-06-19T11:40:16;28.70;58.10
3850;DHT22;1940;51.052;13.678;2023-06-19T11:42:52;29.00;57.00
3850;DHT22;1940;51.052;13.678;2023-06-19T11:45:18;28.80;57.40
3850;DHT22;1940;51.052;13.678;2023-06-19T11:47:45;28.80;57.30
3850;DHT22;1940;51.052;13.678;2023-06-19T11:50:12;28.90;55.90
3850;DHT22;1940;51.052;13.678;2023-06-19T11:52:38;28.90;56.70
3850;DHT22;1940;51.052;13.678;2023-06-19T11:55:03;28.90;55.90
3850;DHT22;1940;51.052;13.678;2023-06-19T11:57:30;29.00;55.00
3850;DHT22;1940;51.052;13.678;2023-06-19T11:59:55;28.90;54.50
3850;DHT22;1940;51.052;13.678;2023-06-19T12:02:21;28.70;55.90
3850;DHT22;1940;51.052;13.678;2023-06-19T12:04:46;28.80;55.50
3850;DHT22;1940;51.052;13.678;2023-06-19T12:07:12;28.80;55.80
3850;DHT22;1940;51.052;13.678;2023-06-19T12:09:37;28.90;55.50
3850;DHT22;1940;51.052;13.678;2023-06-19T12:12:05;29.00;54.00
3850;DHT22;1940;51.052;13.678;2023-06-19T12:14:31;29.20;53.60
3850;DHT22;1940;51.052;13.678;2023-06-19T12:16:56;29.20;53.50
3850;DHT22;1940;51.052;13.678;2023-06-19T12:19:22;29.30;53.20
3850;DHT22;1940;51.052;13.678;2023-06-19T12:21:47;29.30;52.40
3850;DHT22;1940;51.052;13.678;2023-06-19T12:24:13;29.50;53.20
3850;DHT22;1940;51.052;13.678;2023-06-19T12:26:38;29.60;52.00
3850;DHT22;1940;51.052;13.678;2023-06-19T12:29:06;29.60;50.40
3850;DHT22;1940;51.052;13.678;2023-06-19T12:31:33;29.70;51.10
3850;DHT22;1940;51.052;13.678;2023-06-19T12:33:59;29.70;51.00
3850;DHT22;1940;51.052;13.678;2023-06-19T12:36:25;29.70;50.70
3850;DHT22;1940;51.052;13.678;2023-06-19T12:38:52;29.70;49.80
3850;DHT22;1940;51.052;13.678;2023-06-19T12:41:19;29.60;50.50
3850;DHT22;1940;51.052;13.678;2023-06-19T12:43:45;29.50;50.70
3850;DHT22;1940;51.052;13.678;2023-06-19T12:46:10;29.30;50.10
3850;DHT22;1940;51.052;13.678;2023-06-19T12:48:36;29.20;50.00
3850;DHT22;1940;51.052;13.678;2023-06-19T12:51:02;29.10;50.80
3850;DHT22;1940;51.052;13.678;2023-06-19T12:53:27;29.20;50.60
3850;DHT22;1940;51.052;13.678;2023-06-19T12:55:56;29.40;50.60
3850;DHT22;1940;51.052;13.678;2023-06-19T12:58:22;29.60;50.00
3850;DHT22;1940;51.052;13.678;2023-06-19T13:00:48;29.70;50.10
3850;DHT22;1940;51.052;13.678;2023-06-19T13:03:13;29.90;50.30
3850;DHT22;1940;51.052;13.678;2023-06-19T13:05:39;30.00;49.70
3850;DHT22;1940;51.052;13.678;2023-06-19T13:08:04;30.10;49.50
3850;DHT22;1940;51.052;13.678;2023-06-19T13:10:32;30.10;49.50
3850;DHT22;1940;51.052;13.678;2023-06-19T13:12:58;30.10;49.50
3850;DHT22;1940;51.052;13.678;2023-06-19T13:15:24;30.10;49.70
3850;DHT22;1940;51.052;13.678;2023-06-19T13:17:49;30.10;49.50
3850;DHT22;1940;51.052;13.678;2023-06-19T13:20:15;30.00;49.90
3850;DHT22;1940;51.052;13.678;2023-06-19T13:22:41;29.90;50.30
3850;DHT22;1940;51.052;13.678;2023-06-19T13:25:07;30.00;50.90
3850;DHT22;1940;51.052;13.678;2023-06-19T13:27:32;30.10;50.70
3850;DHT22;1940;51.052;13.678;2023-06-19T13:30:00;30.00;51.20
3850;DHT22;1940;51.052;13.678;2023-06-19T13:32:25;30.20;51.80
3850;DHT22;1940;51.052;13.678;2023-06-19T13:34:51;30.40;51.50
3850;DHT22;1940;51.052;13.678;2023-06-19T13:37:17;30.60;50.60
3850;DHT22;1940;51.052;13.678;2023-06-19T13:39:43;30.70;51.60
3850;DHT22;1940;51.052;13.678;2023-06-19T13:42:08;30.90;51.00
3850;DHT22;1940;51.052;13.678;2023-06-19T13:44:34;30.90;51.20
3850;DHT22;1940;51.052;13.678;2023-06-19T13:46:59;30.80;51.80
3850;DHT22;1940;51.052;13.678;2023-06-19T13:49:25;30.90;51.40
3850;DHT22;1940;51.052;13.678;2023-06-19T13:51:51;30.90;51.30
3850;DHT22;1940;51.052;13.678;2023-06-19T13:54:16;30.70;51.80
3850;DHT22;1940;51.052;13.678;2023-06-19T13:56:42;30.80;51.90
3850;DHT22;1940;51.052;13.678;2023-06-19T13:59:08;30.80;51.50
3850;DHT22;1940;51.052;13.678;2023-06-19T14:01:33;30.80;51.40
3850;DHT22;1940;51.052;13.678;2023-06-19T14:03:59;30.90;52.00
3850;DHT22;1940;51.052;13.678;2023-06-19T14:06:25;31.10;52.00
3850;DHT22;1940;51.052;13.678;2023-06-19T14:08:51;31.10;51.70
3850;DHT22;1940;51.052;13.678;2023-06-19T14:11:18;31.00;51.70
3850;DHT22;1940;51.052;13.678;2023-06-19T14:13:43;30.80;51.80
3850;DHT22;1940;51.052;13.678;2023-06-19T14:16:09;30.80;51.80
3850;DHT22;1940;51.052;13.678;2023-06-19T14:18:34;30.80;52.20
3850;DHT22;1940;51.052;13.678;2023-06-19T14:21:02;30.90;52.00
3850;DHT22;1940;51.052;13.678;2023-06-19T14:23:27;30.90;52.70
3850;DHT22;1940;51.052;13.678;2023-06-19T14:25:53;31.00;52.80
3850;DHT22;1940;51.052;13.678;2023-06-19T14:28:18;31.10;52.20
3850;DHT22;1940;51.052;13.678;2023-06-19T14:30:44;31.10;52.20
3850;DHT22;1940;51.052;13.678;2023-06-19T14:33:09;31.10;52.00
3850;DHT22;1940;51.052;13.678;2023-06-19T14:35:41;31.30;52.00
3850;DHT22;1940;51.052;13.678;2023-06-19T14:38:06;31.30;52.20
3850;DHT22;1940;51.052;13.678;2023-06-19T14:40:32;31.40;52.40
3850;DHT22;1940;51.052;13.678;2023-06-19T14:42:57;31.40;51.90
3850;DHT22;1940;51.052;13.678;2023-06-19T14:45:24;31.50;51.70
3850;DHT22;1940;51.052;13.678;2023-06-19T14:47:49;31.40;51.80
3850;DHT22;1940;51.052;13.678;2023-06-19T14:50:15;31.40;51.40
3850;DHT22;1940;51.052;13.678;2023-06-19T14:52:41;31.40;51.50
3850;DHT22;1940;51.052;13.678;2023-06-19T14:55:06;31.20;52.40
3850;DHT22;1940;51.052;13.678;2023-06-19T14:57:32;31.20;52.40
3850;DHT22;1940;51.052;13.678;2023-06-19T14:59:57;31.30;53.20
3850;DHT22;1940;51.052;13.678;2023-06-19T15:02:23;31.40;52.30
3850;DHT22;1940;51.052;13.678;2023-06-19T15:04:48;31.50;51.80
3850;DHT22;1940;51.052;13.678;2023-06-19T15:07:14;31.50;51.70
3850;DHT22;1940;51.052;13.678;2023-06-19T15:09:39;31.50;51.50
3850;DHT22;1940;51.052;13.678;2023-06-19T15:12:05;31.40;52.00
3850;DHT22;1940;51.052;13.678;2023-06-19T15:14:31;31.60;52.10
3850;DHT22;1940;51.052;13.678;2023-06-19T15:16:58;31.70;53.20
3850;DHT22;1940;51.052;13.678;2023-06-19T15:19:23;31.80;51.70
3850;DHT22;1940;51.052;13.678;2023-06-19T15:21:49;31.80;52.10
3850;DHT22;1940;51.052;13.678;2023-06-19T15:24:15;31.80;52.50
3850;DHT22;1940;51.052;13.678;2023-06-19T15:26:40;31.70;51.60
3850;DHT22;1940;51.052;13.678;2023-06-19T15:29:06;31.50;51.50
3850;DHT22;1940;51.052;13.678;2023-06-19T15:31:31;31.60;51.70
3850;DHT22;1940;51.052;13.678;2023-06-19T15:33:57;31.50;53.30
3850;DHT22;1940;51.052;13.678;2023-06-19T15:36:22;31.40;54.10
3850;DHT22;1940;51.052;13.678;2023-06-19T15:38:48;31.30;54.10
3850;DHT22;1940;51.052;13.678;2023-06-19T15:41:14;31.20;54.20
3850;DHT22;1940;51.052;13.678;2023-06-19T15:43:40;31.20;54.30